sensor_id;sensor_type;location;lat;lon;timestamp;P1;durP1;ratioP1;P2;durP2;ratioP2
43146;SDS011;28752;48.266;7.402;2023-08-17T00:01:19;6.00;;;4.20;;
43146;SDS011;28752;48.266;7.402;2023-08-17T00:03:44;6.60;;;4.38;;
43146;SDS011;28752;48.266;7.402;2023-08-17T00:06:10;6.43;;;4.22;;
43146;SDS011;28752;48.266;7.402;2023-08-17T00:08:35;9.38;;;4.50;;
43146;SDS011;28752;48.266;7.402;2023-08-17T00:11:01;7.60;;;4.40;;
43146;SDS011;28752;48.266;7.402;2023-08-17T00:13:26;10.15;;;4.32;;
43146;SDS011;28752;48.266;7.402;2023-08-17T00:15:51;6.93;;;4.07;;
43146;SDS011;28752;48.266;7.402;2023-08-17T00:18:17;6.38;;;4.20;;
43146;SDS011;28752;48.266;7.402;2023-08-17T00:20:42;6.97;;;4.00;;
43146;SDS011;28752;48.266;7.402;2023-08-17T00:23:09;7.95;;;4.55;;
43146;SDS011;28752;48.266;7.402;2023-08-17T00:25:35;9.48;;;3.95;;
43146;SDS011;28752;48.266;7.402;2023-08-17T00:28:00;7.07;;;4.40;;
43146;SDS011;28752;48.266;7.402;2023-08-17T00:30:26;8.00;;;4.37;;
43146;SDS011;28752;48.266;7.402;2023-08-17T00:32:51;7.78;;;4.22;;
43146;SDS011;28752;48.266;7.402;2023-08-17T00:35:17;8.60;;;4.38;;
43146;SDS011;28752;48.266;7.402;2023-08-17T00:37:42;5.95;;;3.92;;
43146;SDS011;28752;48.266;7.402;2023-08-17T00:40:08;7.03;;;4.23;;
43146;SDS011;28752;48.266;7.402;2023-08-17T00:42:33;7.00;;;3.55;;
43146;SDS011;28752;48.266;7.402;2023-08-17T00:44:59;6.97;;;3.60;;
43146;SDS011;28752;48.266;7.402;2023-08-17T00:47:24;6.53;;;3.77;;
43146;SDS011;28752;48.266;7.402;2023-08-17T00:49:49;6.45;;;3.83;;
43146;SDS011;28752;48.266;7.402;2023-08-17T00:52:15;5.40;;;3.70;;
43146;SDS011;28752;48.266;7.402;2023-08-17T00:54:40;7.00;;;3.80;;
43146;SDS011;28752;48.266;7.402;2023-08-17T00:57:05;5.40;;;3.65;;
43146;SDS011;28752;48.266;7.402;2023-08-17T00:59:33;7.50;;;3.72;;
43146;SDS011;28752;48.266;7.402;2023-08-17T01:01:59;5.38;;;3.30;;
43146;SDS011;28752;48.266;7.402;2023-08-17T01:04:24;7.37;;;3.77;;
43146;SDS011;28752;48.266;7.402;2023-08-17T01:06:50;6.55;;;4.00;;
43146;SDS011;28752;48.266;7.402;2023-08-17T01:09:15;6.80;;;3.97;;
43146;SDS011;28752;48.266;7.402;2023-08-17T01:11:45;5.65;;;3.78;;
43146;SDS011;28752;48.266;7.402;2023-08-17T01:14:20;7.70;;;3.88;;
43146;SDS011;28752;48.266;7.402;2023-08-17T01:16:54;6.63;;;3.30;;
43146;SDS011;28752;48.266;7.402;2023-08-17T01:19:27;5.93;;;3.67;;
43146;SDS011;28752;48.266;7.402;2023-08-17T01:21:54;8.18;;;3.72;;
43146;SDS011;28752;48.266;7.402;2023-08-17T01:24:25;5.82;;;3.60;;
43146;SDS011;28752;48.266;7.402;2023-08-17T01:26:51;5.18;;;3.25;;
43146;SDS011;28752;48.266;7.402;2023-08-17T01:29:17;5.50;;;3.17;;
43146;SDS011;28752;48.266;7.402;2023-08-17T01:34:44;5.45;;;3.28;;
43146;SDS011;28752;48.266;7.402;2023-08-17T01:37:14;4.88;;;3.03;;
43146;SDS011;28752;48.266;7.402;2023-08-17T01:39:44;6.07;;;3.08;;
43146;SDS011;28752;48.266;7.402;2023-08-17T01:42:16;5.80;;;2.85;;
43146;SDS011;28752;48.266;7.402;2023-08-17T01:44:42;4.40;;;2.50;;
43146;SDS011;28752;48.266;7.402;2023-08-17T01:47:08;4.40;;;2.60;;
43146;SDS011;28752;48.266;7.402;2023-08-17T01:49:35;6.30;;;2.75;;
43146;SDS011;28752;48.266;7.402;2023-08-17T01:52:01;5.38;;;3.05;;
43146;SDS011;28752;48.266;7.402;2023-08-17T01:54:26;4.87;;;2.90;;
43146;SDS011;28752;48.266;7.402;2023-08-17T01:56:51;4.60;;;2.80;;
43146;SDS011;28752;48.266;7.402;2023-08-17T01:59:16;3.87;;;2.60;;
43146;SDS011;28752;48.266;7.402;2023-08-17T02:01:42;6.10;;;2.83;;
43146;SDS011;28752;48.266;7.402;2023-08-17T02:04:07;4.50;;;2.17;;
43146;SDS011;28752;48.266;7.402;2023-08-17T02:06:32;4.07;;;2.10;;
43146;SDS011;28752;48.266;7.402;2023-08-17T02:08:58;4.37;;;2.13;;
43146;SDS011;28752;48.266;7.402;2023-08-17T02:11:24;3.88;;;2.00;;
43146;SDS011;28752;48.266;7.402;2023-08-17T02:13:49;4.73;;;2.17;;
43146;SDS011;28752;48.266;7.402;2023-08-17T02:16:14;4.23;;;2.10;;
43146;SDS011;28752;48.266;7.402;2023-08-17T02:18:40;4.13;;;2.17;;
43146;SDS011;28752;48.266;7.402;2023-08-17T02:21:05;3.63;;;2.10;;
43146;SDS011;28752;48.266;7.402;2023-08-17T02:23:31;4.00;;;1.93;;
43146;SDS011;28752;48.266;7.402;2023-08-17T02:25:56;4.03;;;2.07;;
43146;SDS011;28752;48.266;7.402;2023-08-17T02:28:21;5.17;;;1.97;;
43146;SDS011;28752;48.266;7.402;2023-08-17T02:30:47;4.20;;;1.77;;
43146;SDS011;28752;48.266;7.402;2023-08-17T02:33:13;3.22;;;1.90;;
43146;SDS011;28752;48.266;7.402;2023-08-17T02:35:39;4.50;;;2.40;;
43146;SDS011;28752;48.266;7.402;2023-08-17T02:38:04;3.40;;;1.80;;
43146;SDS011;28752;48.266;7.402;2023-08-17T02:40:29;3.15;;;1.90;;
43146;SDS011;28752;48.266;7.402;2023-08-17T02:42:55;5.23;;;2.50;;
43146;SDS011;28752;48.266;7.402;2023-08-17T02:45:20;4.13;;;2.50;;
43146;SDS011;28752;48.266;7.402;2023-08-17T02:47:45;4.30;;;2.27;;
43146;SDS011;28752;48.266;7.402;2023-08-17T02:50:11;6.10;;;3.30;;
43146;SDS011;28752;48.266;7.402;2023-08-17T02:52:36;5.13;;;3.00;;
43146;SDS011;28752;48.266;7.402;2023-08-17T02:55:01;3.87;;;2.33;;
43146;SDS011;28752;48.266;7.402;2023-08-17T02:57:27;4.57;;;2.60;;
43146;SDS011;28752;48.266;7.402;2023-08-17T02:59:52;5.43;;;2.65;;
43146;SDS011;28752;48.266;7.402;2023-08-17T03:02:17;5.40;;;3.20;;
43146;SDS011;28752;48.266;7.402;2023-08-17T03:04:43;5.27;;;2.30;;
43146;SDS011;28752;48.266;7.402;2023-08-17T03:07:08;4.73;;;2.10;;
43146;SDS011;28752;48.266;7.402;2023-08-17T03:09:34;4.57;;;2.10;;
43146;SDS011;28752;48.266;7.402;2023-08-17T03:11:59;3.70;;;2.07;;
43146;SDS011;28752;48.266;7.402;2023-08-17T03:14:24;3.73;;;2.07;;
43146;SDS011;28752;48.266;7.402;2023-08-17T03:16:49;4.50;;;2.37;;
43146;SDS011;28752;48.266;7.402;2023-08-17T03:19:15;4.97;;;2.70;;
43146;SDS011;28752;48.266;7.402;2023-08-17T03:21:40;4.35;;;2.30;;
43146;SDS011;28752;48.266;7.402;2023-08-17T03:24:06;4.47;;;2.57;;
43146;SDS011;28752;48.266;7.402;2023-08-17T03:26:32;4.80;;;2.53;;
43146;SDS011;28752;48.266;7.402;2023-08-17T03:28:57;4.93;;;2.47;;
43146;SDS011;28752;48.266;7.402;2023-08-17T03:31:22;4.60;;;2.60;;
43146;SDS011;28752;48.266;7.402;2023-08-17T03:33:48;9.27;;;2.90;;
43146;SDS011;28752;48.266;7.402;2023-08-17T03:36:14;4.35;;;2.63;;
43146;SDS011;28752;48.266;7.402;2023-08-17T03:38:39;3.33;;;2.30;;
43146;SDS011;28752;48.266;7.402;2023-08-17T03:41:05;4.53;;;2.73;;
43146;SDS011;28752;48.266;7.402;2023-08-17T03:43:31;4.20;;;2.20;;
43146;SDS011;28752;48.266;7.402;2023-08-17T03:45:56;4.85;;;2.47;;
43146;SDS011;28752;48.266;7.402;2023-08-17T03:48:22;4.00;;;2.50;;
43146;SDS011;28752;48.266;7.402;2023-08-17T03:50:50;4.20;;;2.50;;
43146;SDS011;28752;48.266;7.402;2023-08-17T03:53:19;4.43;;;2.70;;
43146;SDS011;28752;48.266;7.402;2023-08-17T03:55:45;4.17;;;2.50;;
43146;SDS011;28752;48.266;7.402;2023-08-17T03:58:12;4.93;;;2.97;;
43146;SDS011;28752;48.266;7.402;2023-08-17T04:00:37;6.20;;;2.87;;
43146;SDS011;28752;48.266;7.402;2023-08-17T04:03:04;5.63;;;2.92;;
43146;SDS011;28752;48.266;7.402;2023-08-17T04:05:29;5.53;;;3.20;;
43146;SDS011;28752;48.266;7.402;2023-08-17T04:07:55;5.20;;;3.20;;
43146;SDS011;28752;48.266;7.402;2023-08-17T04:10:21;6.53;;;3.25;;
43146;SDS011;28752;48.266;7.402;2023-08-17T04:12:46;6.68;;;3.55;;
43146;SDS011;28752;48.266;7.402;2023-08-17T04:15:11;5.60;;;3.03;;
43146;SDS011;28752;48.266;7.402;2023-08-17T04:17:37;6.30;;;3.57;;
43146;SDS011;28752;48.266;7.402;2023-08-17T04:20:02;5.47;;;3.27;;
43146;SDS011;28752;48.266;7.402;2023-08-17T04:22:28;5.88;;;3.47;;
43146;SDS011;28752;48.266;7.402;2023-08-17T04:24:53;6.20;;;4.00;;
43146;SDS011;28752;48.266;7.402;2023-08-17T04:27:18;6.00;;;3.67;;
43146;SDS011;28752;48.266;7.402;2023-08-17T04:29:44;8.13;;;3.73;;
43146;SDS011;28752;48.266;7.402;2023-08-17T04:32:13;7.37;;;3.70;;
43146;SDS011;28752;48.266;7.402;2023-08-17T04:34:39;5.97;;;3.60;;
43146;SDS011;28752;48.266;7.402;2023-08-17T04:37:06;6.10;;;3.90;;
43146;SDS011;28752;48.266;7.402;2023-08-17T04:39:32;6.40;;;4.03;;
43146;SDS011;28752;48.266;7.402;2023-08-17T04:41:57;6.27;;;3.60;;
43146;SDS011;28752;48.266;7.402;2023-08-17T04:44:23;6.63;;;3.92;;
43146;SDS011;28752;48.266;7.402;2023-08-17T04:46:48;6.03;;;3.50;;
43146;SDS011;28752;48.266;7.402;2023-08-17T04:49:14;7.47;;;3.93;;
43146;SDS011;28752;48.266;7.402;2023-08-17T04:51:39;7.30;;;4.43;;
43146;SDS011;28752;48.266;7.402;2023-08-17T04:54:04;7.27;;;3.90;;
43146;SDS011;28752;48.266;7.402;2023-08-17T04:56:29;6.73;;;4.60;;
43146;SDS011;28752;48.266;7.402;2023-08-17T04:58:55;5.63;;;3.75;;
43146;SDS011;28752;48.266;7.402;2023-08-17T05:01:21;5.40;;;3.63;;
43146;SDS011;28752;48.266;7.402;2023-08-17T05:03:46;5.60;;;3.60;;
43146;SDS011;28752;48.266;7.402;2023-08-17T05:06:12;5.50;;;3.67;;
43146;SDS011;28752;48.266;7.402;2023-08-17T05:11:03;6.57;;;3.70;;
43146;SDS011;28752;48.266;7.402;2023-08-17T05:13:28;8.20;;;3.90;;
43146;SDS011;28752;48.266;7.402;2023-08-17T05:15:53;6.70;;;3.47;;
43146;SDS011;28752;48.266;7.402;2023-08-17T05:18:19;5.97;;;3.33;;
43146;SDS011;28752;48.266;7.402;2023-08-17T05:20:44;7.53;;;3.37;;
43146;SDS011;28752;48.266;7.402;2023-08-17T05:23:09;5.15;;;3.17;;
43146;SDS011;28752;48.266;7.402;2023-08-17T05:25:35;7.03;;;3.13;;
43146;SDS011;28752;48.266;7.402;2023-08-17T05:28:00;4.57;;;3.23;;
43146;SDS011;28752;48.266;7.402;2023-08-17T05:30:26;6.10;;;3.25;;
43146;SDS011;28752;48.266;7.402;2023-08-17T05:32:51;6.63;;;3.03;;
43146;SDS011;28752;48.266;7.402;2023-08-17T05:35:16;5.70;;;3.00;;
43146;SDS011;28752;48.266;7.402;2023-08-17T05:37:41;6.82;;;3.70;;
43146;SDS011;28752;48.266;7.402;2023-08-17T05:40:07;8.17;;;3.37;;
43146;SDS011;28752;48.266;7.402;2023-08-17T05:42:34;4.97;;;3.30;;
43146;SDS011;28752;48.266;7.402;2023-08-17T05:44:59;6.40;;;3.27;;
43146;SDS011;28752;48.266;7.402;2023-08-17T05:47:24;5.43;;;3.37;;
43146;SDS011;28752;48.266;7.402;2023-08-17T05:49:49;5.87;;;2.90;;
43146;SDS011;28752;48.266;7.402;2023-08-17T05:52:15;5.40;;;2.53;;
43146;SDS011;28752;48.266;7.402;2023-08-17T05:54:40;5.28;;;2.60;;
43146;SDS011;28752;48.266;7.402;2023-08-17T05:57:21;4.22;;;2.83;;
43146;SDS011;28752;48.266;7.402;2023-08-17T05:59:47;4.50;;;2.85;;
43146;SDS011;28752;48.266;7.402;2023-08-17T06:02:12;6.75;;;2.75;;
43146;SDS011;28752;48.266;7.402;2023-08-17T06:04:37;4.30;;;2.60;;
43146;SDS011;28752;48.266;7.402;2023-08-17T06:07:03;4.70;;;2.90;;
43146;SDS011;28752;48.266;7.402;2023-08-17T06:09:28;5.28;;;2.45;;
43146;SDS011;28752;48.266;7.402;2023-08-17T06:11:54;4.68;;;2.70;;
43146;SDS011;28752;48.266;7.402;2023-08-17T06:14:19;5.77;;;2.93;;
43146;SDS011;28752;48.266;7.402;2023-08-17T06:16:44;4.40;;;2.90;;
43146;SDS011;28752;48.266;7.402;2023-08-17T06:19:10;4.90;;;2.63;;
43146;SDS011;28752;48.266;7.402;2023-08-17T06:21:35;4.63;;;2.85;;
43146;SDS011;28752;48.266;7.402;2023-08-17T06:24:00;5.75;;;2.90;;
43146;SDS011;28752;48.266;7.402;2023-08-17T06:26:26;5.43;;;2.77;;
43146;SDS011;28752;48.266;7.402;2023-08-17T06:28:51;8.85;;;3.20;;
43146;SDS011;28752;48.266;7.402;2023-08-17T06:31:16;5.47;;;3.43;;
43146;SDS011;28752;48.266;7.402;2023-08-17T06:33:42;5.72;;;3.45;;
43146;SDS011;28752;48.266;7.402;2023-08-17T06:36:07;4.70;;;2.70;;
43146;SDS011;28752;48.266;7.402;2023-08-17T06:38:32;4.78;;;2.60;;
43146;SDS011;28752;48.266;7.402;2023-08-17T06:43:23;4.60;;;1.97;;
43146;SDS011;28752;48.266;7.402;2023-08-17T06:45:48;5.18;;;2.50;;
43146;SDS011;28752;48.266;7.402;2023-08-17T06:48:14;3.70;;;1.95;;
43146;SDS011;28752;48.266;7.402;2023-08-17T06:50:39;4.10;;;2.10;;
43146;SDS011;28752;48.266;7.402;2023-08-17T06:53:04;4.93;;;2.00;;
43146;SDS011;28752;48.266;7.402;2023-08-17T06:55:30;4.03;;;1.75;;
43146;SDS011;28752;48.266;7.402;2023-08-17T06:57:57;4.90;;;1.50;;
43146;SDS011;28752;48.266;7.402;2023-08-17T07:00:23;4.50;;;1.70;;
43146;SDS011;28752;48.266;7.402;2023-08-17T07:02:48;3.85;;;1.25;;
43146;SDS011;28752;48.266;7.402;2023-08-17T07:05:14;2.92;;;1.38;;
43146;SDS011;28752;48.266;7.402;2023-08-17T07:07:40;2.88;;;1.40;;
43146;SDS011;28752;48.266;7.402;2023-08-17T07:10:05;3.40;;;1.50;;
43146;SDS011;28752;48.266;7.402;2023-08-17T07:12:32;2.60;;;1.17;;
43146;SDS011;28752;48.266;7.402;2023-08-17T07:14:57;6.10;;;1.92;;
43146;SDS011;28752;48.266;7.402;2023-08-17T07:17:23;3.28;;;1.33;;
43146;SDS011;28752;48.266;7.402;2023-08-17T07:19:48;3.65;;;1.42;;
43146;SDS011;28752;48.266;7.402;2023-08-17T07:22:14;3.67;;;1.60;;
43146;SDS011;28752;48.266;7.402;2023-08-17T07:24:41;2.72;;;1.20;;
43146;SDS011;28752;48.266;7.402;2023-08-17T07:27:06;3.83;;;1.38;;
43146;SDS011;28752;48.266;7.402;2023-08-17T07:29:32;2.65;;;1.20;;
43146;SDS011;28752;48.266;7.402;2023-08-17T07:31:57;3.55;;;1.52;;
43146;SDS011;28752;48.266;7.402;2023-08-17T07:34:26;2.75;;;1.55;;
43146;SDS011;28752;48.266;7.402;2023-08-17T07:36:52;4.00;;;1.50;;
43146;SDS011;28752;48.266;7.402;2023-08-17T07:39:17;4.43;;;1.80;;
43146;SDS011;28752;48.266;7.402;2023-08-17T07:41:43;4.45;;;2.00;;
43146;SDS011;28752;48.266;7.402;2023-08-17T07:44:09;3.60;;;1.42;;
43146;SDS011;28752;48.266;7.402;2023-08-17T07:46:34;2.95;;;1.50;;
43146;SDS011;28752;48.266;7.402;2023-08-17T07:49:00;3.53;;;1.55;;
43146;SDS011;28752;48.266;7.402;2023-08-17T07:51:25;3.60;;;1.75;;
43146;SDS011;28752;48.266;7.402;2023-08-17T07:53:50;3.95;;;1.80;;
43146;SDS011;28752;48.266;7.402;2023-08-17T07:56:15;3.75;;;1.70;;
43146;SDS011;28752;48.266;7.402;2023-08-17T07:58:41;4.00;;;1.80;;
43146;SDS011;28752;48.266;7.402;2023-08-17T08:01:06;4.07;;;1.70;;
43146;SDS011;28752;48.266;7.402;2023-08-17T08:03:32;3.25;;;1.65;;
43146;SDS011;28752;48.266;7.402;2023-08-17T08:05:57;3.42;;;2.05;;
43146;SDS011;28752;48.266;7.402;2023-08-17T08:08:22;5.18;;;2.25;;
43146;SDS011;28752;48.266;7.402;2023-08-17T08:10:48;4.38;;;2.20;;
43146;SDS011;28752;48.266;7.402;2023-08-17T08:13:13;3.50;;;1.77;;
43146;SDS011;28752;48.266;7.402;2023-08-17T08:15:39;3.15;;;1.70;;
43146;SDS011;28752;48.266;7.402;2023-08-17T08:18:04;4.18;;;1.90;;
43146;SDS011;28752;48.266;7.402;2023-08-17T08:22:55;4.00;;;1.75;;
43146;SDS011;28752;48.266;7.402;2023-08-17T08:27:45;3.73;;;1.97;;
43146;SDS011;28752;48.266;7.402;2023-08-17T08:32:36;4.77;;;2.00;;
43146;SDS011;28752;48.266;7.402;2023-08-17T08:39:53;3.93;;;1.80;;
43146;SDS011;28752;48.266;7.402;2023-08-17T08:42:19;3.10;;;1.63;;
43146;SDS011;28752;48.266;7.402;2023-08-17T08:44:46;4.00;;;2.05;;
43146;SDS011;28752;48.266;7.402;2023-08-17T08:47:12;4.00;;;2.05;;
43146;SDS011;28752;48.266;7.402;2023-08-17T08:49:39;3.60;;;1.80;;
43146;SDS011;28752;48.266;7.402;2023-08-17T08:52:07;4.43;;;2.30;;
43146;SDS011;28752;48.266;7.402;2023-08-17T08:54:32;5.03;;;1.88;;
43146;SDS011;28752;48.266;7.402;2023-08-17T08:57:03;4.13;;;2.08;;
43146;SDS011;28752;48.266;7.402;2023-08-17T08:59:33;3.67;;;1.80;;
43146;SDS011;28752;48.266;7.402;2023-08-17T09:01:59;3.53;;;2.10;;
43146;SDS011;28752;48.266;7.402;2023-08-17T09:06:50;4.20;;;2.35;;
43146;SDS011;28752;48.266;7.402;2023-08-17T09:09:16;4.00;;;1.65;;
43146;SDS011;28752;48.266;7.402;2023-08-17T09:11:43;3.95;;;2.15;;
43146;SDS011;28752;48.266;7.402;2023-08-17T09:18:59;3.90;;;2.10;;
43146;SDS011;28752;48.266;7.402;2023-08-17T09:23:53;3.55;;;2.08;;
43146;SDS011;28752;48.266;7.402;2023-08-17T09:26:20;6.07;;;2.55;;
43146;SDS011;28752;48.266;7.402;2023-08-17T09:28:48;2.65;;;1.63;;
43146;SDS011;28752;48.266;7.402;2023-08-17T09:33:39;3.33;;;1.87;;
43146;SDS011;28752;48.266;7.402;2023-08-17T09:40:55;4.13;;;1.83;;
43146;SDS011;28752;48.266;7.402;2023-08-17T09:43:22;4.22;;;2.22;;
43146;SDS011;28752;48.266;7.402;2023-08-17T09:48:15;3.38;;;2.15;;
43146;SDS011;28752;48.266;7.402;2023-08-17T09:50:42;3.22;;;1.67;;
43146;SDS011;28752;48.266;7.402;2023-08-17T09:53:15;4.15;;;2.13;;
43146;SDS011;28752;48.266;7.402;2023-08-17T09:55:42;3.25;;;1.88;;
43146;SDS011;28752;48.266;7.402;2023-08-17T09:58:08;3.75;;;2.10;;
43146;SDS011;28752;48.266;7.402;2023-08-17T10:03:03;3.85;;;2.15;;
43146;SDS011;28752;48.266;7.402;2023-08-17T10:05:30;4.30;;;2.03;;
43146;SDS011;28752;48.266;7.402;2023-08-17T10:08:00;4.18;;;2.17;;
43146;SDS011;28752;48.266;7.402;2023-08-17T10:10:28;3.60;;;2.10;;
43146;SDS011;28752;48.266;7.402;2023-08-17T10:21:24;4.03;;;2.33;;
43146;SDS011;28752;48.266;7.402;2023-08-17T10:23:54;3.22;;;1.70;;
43146;SDS011;28752;48.266;7.402;2023-08-17T10:26:21;4.13;;;2.53;;
43146;SDS011;28752;48.266;7.402;2023-08-17T10:28:47;3.45;;;1.98;;
43146;SDS011;28752;48.266;7.402;2023-08-17T10:33:38;5.20;;;2.40;;
43146;SDS011;28752;48.266;7.402;2023-08-17T10:36:07;3.70;;;2.30;;
43146;SDS011;28752;48.266;7.402;2023-08-17T10:41:11;4.20;;;2.20;;
43146;SDS011;28752;48.266;7.402;2023-08-17T10:43:53;4.20;;;2.38;;
43146;SDS011;28752;48.266;7.402;2023-08-17T10:46:31;4.83;;;2.60;;
43146;SDS011;28752;48.266;7.402;2023-08-17T10:51:25;5.25;;;2.28;;
43146;SDS011;28752;48.266;7.402;2023-08-17T10:56:17;4.30;;;2.50;;
43146;SDS011;28752;48.266;7.402;2023-08-17T11:03:34;4.07;;;2.08;;
43146;SDS011;28752;48.266;7.402;2023-08-17T11:06:13;4.07;;;2.20;;
43146;SDS011;28752;48.266;7.402;2023-08-17T11:08:51;4.60;;;2.33;;
43146;SDS011;28752;48.266;7.402;2023-08-17T11:11:19;5.63;;;2.55;;
43146;SDS011;28752;48.266;7.402;2023-08-17T11:13:45;4.88;;;2.53;;
43146;SDS011;28752;48.266;7.402;2023-08-17T11:16:12;3.92;;;2.40;;
43146;SDS011;28752;48.266;7.402;2023-08-17T11:18:38;5.15;;;2.67;;
43146;SDS011;28752;48.266;7.402;2023-08-17T11:21:06;3.92;;;2.40;;
43146;SDS011;28752;48.266;7.402;2023-08-17T11:23:33;4.00;;;2.38;;
43146;SDS011;28752;48.266;7.402;2023-08-17T11:25:59;4.35;;;2.58;;
43146;SDS011;28752;48.266;7.402;2023-08-17T11:28:25;4.22;;;2.40;;
43146;SDS011;28752;48.266;7.402;2023-08-17T11:30:58;3.85;;;2.30;;
43146;SDS011;28752;48.266;7.402;2023-08-17T11:33:34;4.57;;;2.75;;
43146;SDS011;28752;48.266;7.402;2023-08-17T11:36:03;4.90;;;2.60;;
43146;SDS011;28752;48.266;7.402;2023-08-17T11:38:31;5.32;;;3.05;;
43146;SDS011;28752;48.266;7.402;2023-08-17T11:40:58;3.72;;;2.28;;
43146;SDS011;28752;48.266;7.402;2023-08-17T11:43:24;5.00;;;2.67;;
43146;SDS011;28752;48.266;7.402;2023-08-17T11:45:51;4.43;;;2.60;;
43146;SDS011;28752;48.266;7.402;2023-08-17T11:48:18;5.45;;;2.70;;
43146;SDS011;28752;48.266;7.402;2023-08-17T11:50:44;4.38;;;2.65;;
43146;SDS011;28752;48.266;7.402;2023-08-17T11:53:10;4.00;;;2.53;;
43146;SDS011;28752;48.266;7.402;2023-08-17T11:55:35;4.47;;;2.58;;
43146;SDS011;28752;48.266;7.402;2023-08-17T11:58:01;4.53;;;2.90;;
43146;SDS011;28752;48.266;7.402;2023-08-17T12:00:27;4.32;;;2.95;;
43146;SDS011;28752;48.266;7.402;2023-08-17T12:02:59;4.97;;;3.17;;
43146;SDS011;28752;48.266;7.402;2023-08-17T12:05:24;4.35;;;2.60;;
43146;SDS011;28752;48.266;7.402;2023-08-17T12:07:54;6.68;;;2.97;;
43146;SDS011;28752;48.266;7.402;2023-08-17T12:10:20;5.10;;;2.95;;
43146;SDS011;28752;48.266;7.402;2023-08-17T12:12:47;4.97;;;2.70;;
43146;SDS011;28752;48.266;7.402;2023-08-17T12:15:13;4.72;;;3.00;;
43146;SDS011;28752;48.266;7.402;2023-08-17T12:17:45;4.47;;;3.05;;
43146;SDS011;28752;48.266;7.402;2023-08-17T12:20:18;4.60;;;2.50;;
43146;SDS011;28752;48.266;7.402;2023-08-17T12:22:44;4.80;;;3.08;;
43146;SDS011;28752;48.266;7.402;2023-08-17T12:25:10;5.57;;;3.10;;
43146;SDS011;28752;48.266;7.402;2023-08-17T12:27:36;4.20;;;2.88;;
43146;SDS011;28752;48.266;7.402;2023-08-17T12:30:01;4.90;;;2.95;;
43146;SDS011;28752;48.266;7.402;2023-08-17T12:32:27;5.25;;;3.05;;
43146;SDS011;28752;48.266;7.402;2023-08-17T12:34:52;5.55;;;3.30;;
43146;SDS011;28752;48.266;7.402;2023-08-17T12:37:18;5.15;;;3.00;;
43146;SDS011;28752;48.266;7.402;2023-08-17T12:39:45;5.18;;;3.33;;
43146;SDS011;28752;48.266;7.402;2023-08-17T12:42:11;6.28;;;2.88;;
43146;SDS011;28752;48.266;7.402;2023-08-17T12:44:37;5.88;;;3.08;;
43146;SDS011;28752;48.266;7.402;2023-08-17T12:47:02;5.15;;;3.28;;
43146;SDS011;28752;48.266;7.402;2023-08-17T12:49:27;4.10;;;3.03;;
43146;SDS011;28752;48.266;7.402;2023-08-17T12:51:52;4.93;;;2.95;;
43146;SDS011;28752;48.266;7.402;2023-08-17T12:54:18;4.90;;;2.90;;
43146;SDS011;28752;48.266;7.402;2023-08-17T12:56:43;4.57;;;2.80;;
43146;SDS011;28752;48.266;7.402;2023-08-17T12:59:09;4.15;;;2.85;;
43146;SDS011;28752;48.266;7.402;2023-08-17T13:01:35;5.20;;;2.90;;
43146;SDS011;28752;48.266;7.402;2023-08-17T13:04:00;4.55;;;2.78;;
43146;SDS011;28752;48.266;7.402;2023-08-17T13:06:25;4.53;;;2.65;;
43146;SDS011;28752;48.266;7.402;2023-08-17T13:08:51;5.03;;;2.80;;
43146;SDS011;28752;48.266;7.402;2023-08-17T13:11:16;5.50;;;3.10;;
43146;SDS011;28752;48.266;7.402;2023-08-17T13:13:41;4.97;;;2.67;;
43146;SDS011;28752;48.266;7.402;2023-08-17T13:16:07;4.70;;;2.85;;
43146;SDS011;28752;48.266;7.402;2023-08-17T13:18:32;4.30;;;2.80;;
43146;SDS011;28752;48.266;7.402;2023-08-17T13:20:57;4.38;;;2.75;;
43146;SDS011;28752;48.266;7.402;2023-08-17T13:23:23;4.50;;;2.90;;
43146;SDS011;28752;48.266;7.402;2023-08-17T13:25:48;5.18;;;3.00;;
43146;SDS011;28752;48.266;7.402;2023-08-17T13:28:14;5.35;;;2.88;;
43146;SDS011;28752;48.266;7.402;2023-08-17T13:30:39;4.50;;;3.03;;
43146;SDS011;28752;48.266;7.402;2023-08-17T13:33:05;5.38;;;2.90;;
43146;SDS011;28752;48.266;7.402;2023-08-17T13:35:31;5.30;;;2.92;;
43146;SDS011;28752;48.266;7.402;2023-08-17T13:37:57;8.68;;;3.47;;
43146;SDS011;28752;48.266;7.402;2023-08-17T13:40:22;4.43;;;3.10;;
43146;SDS011;28752;48.266;7.402;2023-08-17T13:42:48;4.20;;;2.80;;
43146;SDS011;28752;48.266;7.402;2023-08-17T13:45:13;4.75;;;2.97;;
43146;SDS011;28752;48.266;7.402;2023-08-17T13:47:38;4.45;;;2.80;;
43146;SDS011;28752;48.266;7.402;2023-08-17T13:50:04;4.57;;;3.10;;
43146;SDS011;28752;48.266;7.402;2023-08-17T13:52:30;4.97;;;3.30;;
43146;SDS011;28752;48.266;7.402;2023-08-17T13:54:55;7.32;;;3.58;;
43146;SDS011;28752;48.266;7.402;2023-08-17T13:57:20;5.40;;;3.03;;
43146;SDS011;28752;48.266;7.402;2023-08-17T13:59:46;4.88;;;2.78;;
43146;SDS011;28752;48.266;7.402;2023-08-17T14:02:11;5.05;;;3.00;;
43146;SDS011;28752;48.266;7.402;2023-08-17T14:04:36;4.82;;;3.08;;
43146;SDS011;28752;48.266;7.402;2023-08-17T14:07:02;4.55;;;3.03;;
43146;SDS011;28752;48.266;7.402;2023-08-17T14:09:27;5.10;;;2.95;;
43146;SDS011;28752;48.266;7.402;2023-08-17T14:11:52;4.72;;;3.22;;
43146;SDS011;28752;48.266;7.402;2023-08-17T14:14:18;4.88;;;3.00;;
43146;SDS011;28752;48.266;7.402;2023-08-17T14:16:43;4.80;;;3.40;;
43146;SDS011;28752;48.266;7.402;2023-08-17T14:19:08;4.47;;;2.97;;
43146;SDS011;28752;48.266;7.402;2023-08-17T14:21:34;4.20;;;2.80;;
43146;SDS011;28752;48.266;7.402;2023-08-17T14:23:59;7.38;;;3.10;;
43146;SDS011;28752;48.266;7.402;2023-08-17T14:26:24;4.82;;;3.30;;
43146;SDS011;28752;48.266;7.402;2023-08-17T14:28:49;5.65;;;3.20;;
43146;SDS011;28752;48.266;7.402;2023-08-17T14:31:15;5.07;;;3.30;;
43146;SDS011;28752;48.266;7.402;2023-08-17T14:33:43;6.63;;;2.95;;
43146;SDS011;28752;48.266;7.402;2023-08-17T14:36:12;6.10;;;3.30;;
43146;SDS011;28752;48.266;7.402;2023-08-17T14:38:38;4.90;;;3.10;;
43146;SDS011;28752;48.266;7.402;2023-08-17T14:41:03;6.55;;;3.60;;
43146;SDS011;28752;48.266;7.402;2023-08-17T14:43:29;5.97;;;3.60;;
43146;SDS011;28752;48.266;7.402;2023-08-17T14:45:55;6.03;;;3.33;;
43146;SDS011;28752;48.266;7.402;2023-08-17T14:48:20;5.68;;;3.35;;
43146;SDS011;28752;48.266;7.402;2023-08-17T14:50:46;6.55;;;3.20;;
43146;SDS011;28752;48.266;7.402;2023-08-17T14:53:11;4.75;;;3.45;;
43146;SDS011;28752;48.266;7.402;2023-08-17T14:55:36;5.60;;;3.22;;
43146;SDS011;28752;48.266;7.402;2023-08-17T14:58:02;5.85;;;3.50;;
43146;SDS011;28752;48.266;7.402;2023-08-17T15:00:27;5.93;;;3.55;;
43146;SDS011;28752;48.266;7.402;2023-08-17T15:02:56;6.93;;;3.90;;
43146;SDS011;28752;48.266;7.402;2023-08-17T15:05:25;6.00;;;4.00;;
43146;SDS011;28752;48.266;7.402;2023-08-17T15:07:51;6.22;;;3.78;;
43146;SDS011;28752;48.266;7.402;2023-08-17T15:10:16;6.18;;;3.50;;
43146;SDS011;28752;48.266;7.402;2023-08-17T15:12:42;5.20;;;3.45;;
43146;SDS011;28752;48.266;7.402;2023-08-17T15:15:07;5.60;;;3.67;;
43146;SDS011;28752;48.266;7.402;2023-08-17T15:17:33;5.72;;;3.60;;
43146;SDS011;28752;48.266;7.402;2023-08-17T15:19:59;7.10;;;3.88;;
43146;SDS011;28752;48.266;7.402;2023-08-17T15:22:25;7.18;;;3.95;;
43146;SDS011;28752;48.266;7.402;2023-08-17T15:24:50;6.22;;;4.15;;
43146;SDS011;28752;48.266;7.402;2023-08-17T15:27:16;8.52;;;4.55;;
43146;SDS011;28752;48.266;7.402;2023-08-17T15:29:41;5.10;;;3.42;;
43146;SDS011;28752;48.266;7.402;2023-08-17T15:32:07;6.40;;;3.78;;
43146;SDS011;28752;48.266;7.402;2023-08-17T15:34:33;6.05;;;3.95;;
43146;SDS011;28752;48.266;7.402;2023-08-17T15:36:59;6.72;;;4.15;;
43146;SDS011;28752;48.266;7.402;2023-08-17T15:39:25;6.22;;;4.15;;
43146;SDS011;28752;48.266;7.402;2023-08-17T15:41:50;6.53;;;4.00;;
43146;SDS011;28752;48.266;7.402;2023-08-17T15:44:16;5.32;;;3.63;;
43146;SDS011;28752;48.266;7.402;2023-08-17T15:46:41;6.18;;;3.70;;